FAGO weather

Gowrie Airport
Mpumalanga, South Africa

Public forecast

Using degrees Celsius for public forecast. Weather courtesy of forecast.io.

METAR (pilot weather report)

Closest report is Hoedspruit Air Force Base Airport, 35.6 nm (66.0 km) NW. Retrieved 2019/09/23 03:00 UTC (44 minutes ago):

FAHS 230300Z AUTO 17014KT //// // ////// 20/17 Q1018

TAF (pilot weather forecast)

Forecast is more than 12 hours old.

Closest forecast is Hoedspruit Air Force Base Airport, 35.6 nm (66.0 km) NW. Retrieved 2017/05/23 04:01 UTC (2 years ago):

TAF FAHS 230300Z 2304/2315 VRB02KT CAVOK TX29/2312ZTN12/2304Z